Time;durP1;ratioP1;P1;durP2;ratioP2;P2;SDS_P1;SDS_P2;PMS_P1;PMS_P2;Temp;Humidity;BMP_temperature;BMP_pressure;BME280_temperature;BME280_humidity;BME280_pressure;Samples;Min_cycle;Max_cycle;Signal;HPM_P1;HPM_P2
2023/12/12 00:02:10;;;;;;;75.72;35.03;;;;;;;;;;6116652;23;20021;-72
2023/12/12 00:04:36;;;;;;;81.72;40.22;;;;;;;;;;6117077;23;20463;-73
2023/12/12 00:07:01;;;;;;;75.22;39.05;;;;;;;;;;6117903;23;20017;-71
2023/12/12 00:09:28;;;;;;;73.85;39.08;;;;;;;;;;6117880;23;20006;-71
2023/12/12 00:11:54;;;;;;;84.85;41.65;;;;;;;;;;6117912;23;20020;-72
2023/12/12 00:14:20;;;;;;;77.82;41.63;;;;;;;;;;6117977;23;20025;-72
2023/12/12 00:16:46;;;;;;;70.90;40.90;;;;;;;;;;6118922;23;20456;-72
2023/12/12 00:19:12;;;;;;;81.45;41.55;;;;;;;;;;6092062;23;20009;-71
2023/12/12 00:21:38;;;;;;;68.95;37.75;;;;;;;;;;6092514;23;20467;-71
2023/12/12 00:24:05;;;;;;;68.43;37.42;;;;;;;;;;6116123;23;20009;-71
2023/12/12 00:26:31;;;;;;;68.45;36.20;;;;;;;;;;6117877;23;20273;-71
2023/12/12 00:28:56;;;;;;;68.60;34.70;;;;;;;;;;6092188;23;20009;-71
2023/12/12 00:31:22;;;;;;;74.75;38.80;;;;;;;;;;6117743;23;20374;-71
2023/12/12 00:33:48;;;;;;;68.82;37.35;;;;;;;;;;6117574;23;20044;-72
2023/12/12 00:36:14;;;;;;;67.95;38.30;;;;;;;;;;6118883;23;20014;-72
2023/12/12 00:38:39;;;;;;;60.20;34.47;;;;;;;;;;6118285;23;20013;-71
2023/12/12 00:41:05;;;;;;;61.45;31.02;;;;;;;;;;6119041;23;20018;-71
2023/12/12 00:43:31;;;;;;;60.25;31.00;;;;;;;;;;6117833;23;20348;-71
2023/12/12 00:45:56;;;;;;;64.60;34.10;;;;;;;;;;6117573;23;20014;-72
2023/12/12 00:48:22;;;;;;;62.72;33.80;;;;;;;;;;6119226;23;20009;-71
2023/12/12 00:50:48;;;;;;;57.45;30.08;;;;;;;;;;6120412;23;20009;-72
2023/12/12 00:53:14;;;;;;;55.72;31.80;;;;;;;;;;6116889;23;20374;-72
2023/12/12 00:55:40;;;;;;;55.70;30.38;;;;;;;;;;6091786;23;20073;-72
2023/12/12 00:58:05;;;;;;;58.25;30.50;;;;;;;;;;6091910;23;20006;-72
2023/12/12 01:00:31;;;;;;;52.13;28.33;;;;;;;;;;6117008;23;20339;-72
2023/12/12 01:02:57;;;;;;;49.15;26.58;;;;;;;;;;6090837;23;20312;-72
2023/12/12 01:05:22;;;;;;;51.80;25.00;;;;;;;;;;6091714;23;20024;-71
2023/12/12 01:07:48;;;;;;;42.22;24.38;;;;;;;;;;6117339;23;20039;-72
2023/12/12 01:10:14;;;;;;;44.40;25.70;;;;;;;;;;6091292;23;20093;-72
2023/12/12 01:12:39;;;;;;;52.45;27.45;;;;;;;;;;6117902;23;20002;-71
2023/12/12 01:15:06;;;;;;;55.97;25.92;;;;;;;;;;6117909;23;20010;-71
2023/12/12 01:17:31;;;;;;;46.70;26.25;;;;;;;;;;6117976;23;20451;-72
2023/12/12 01:19:57;;;;;;;45.75;26.10;;;;;;;;;;6117635;23;20014;-72
2023/12/12 01:22:23;;;;;;;49.58;27.25;;;;;;;;;;6114776;23;20704;-72
2023/12/12 01:24:48;;;;;;;45.53;25.55;;;;;;;;;;6116081;23;20010;-72
2023/12/12 01:27:14;;;;;;;42.13;24.30;;;;;;;;;;6117853;23;20341;-72
2023/12/12 01:29:40;;;;;;;41.60;22.58;;;;;;;;;;6117277;23;20018;-71
2023/12/12 01:32:05;;;;;;;44.60;23.85;;;;;;;;;;6117512;23;20080;-72
2023/12/12 01:34:31;;;;;;;45.13;25.00;;;;;;;;;;6116046;23;20020;-72
2023/12/12 01:36:57;;;;;;;44.25;23.13;;;;;;;;;;6117040;23;20520;-71
2023/12/12 01:39:23;;;;;;;47.60;24.05;;;;;;;;;;6116133;23;20021;-71
2023/12/12 01:41:49;;;;;;;51.75;28.55;;;;;;;;;;6114262;23;20425;-71
2023/12/12 01:44:15;;;;;;;53.97;29.85;;;;;;;;;;6116702;23;20513;-70
2023/12/12 01:46:46;;;;;;;45.30;26.10;;;;;;;;;;6117747;23;20014;-72
2023/12/12 01:49:13;;;;;;;48.95;27.30;;;;;;;;;;6119241;23;20009;-70
2023/12/12 01:51:39;;;;;;;52.53;27.85;;;;;;;;;;6119378;23;20324;-72
2023/12/12 01:54:06;;;;;;;49.45;28.33;;;;;;;;;;6117161;23;20024;-72
2023/12/12 01:56:34;;;;;;;47.38;26.33;;;;;;;;;;6118818;23;20018;-72
2023/12/12 01:59:01;;;;;;;49.10;26.95;;;;;;;;;;6118818;23;20018;-72
2023/12/12 02:01:28;;;;;;;62.80;32.78;;;;;;;;;;6119003;23;20006;-71
2023/12/12 02:03:54;;;;;;;65.05;35.40;;;;;;;;;;6092187;23;20519;-71
2023/12/12 02:06:24;;;;;;;72.13;38.10;;;;;;;;;;6118989;23;20010;-73
2023/12/12 02:08:51;;;;;;;74.35;39.42;;;;;;;;;;6118616;23;20046;-71
2023/12/12 02:11:21;;;;;;;57.58;32.53;;;;;;;;;;6116946;23;20002;-71
2023/12/12 02:13:48;;;;;;;60.70;33.08;;;;;;;;;;6118810;23;20013;-71
2023/12/12 02:16:14;;;;;;;59.20;32.65;;;;;;;;;;6118245;23;20016;-72
2023/12/12 02:18:40;;;;;;;55.85;31.80;;;;;;;;;;6118961;23;20065;-72
2023/12/12 02:21:06;;;;;;;58.40;31.33;;;;;;;;;;6118213;23;20006;-73
2023/12/12 02:23:32;;;;;;;61.08;32.28;;;;;;;;;;6118817;23;20041;-71
2023/12/12 02:26:02;;;;;;;54.20;30.38;;;;;;;;;;6118550;23;20016;-72
2023/12/12 02:28:29;;;;;;;58.55;32.40;;;;;;;;;;6119177;23;20034;-71
2023/12/12 02:30:55;;;;;;;58.92;31.50;;;;;;;;;;6116616;23;20009;-72
2023/12/12 02:33:21;;;;;;;58.00;31.58;;;;;;;;;;6116626;23;20022;-71
2023/12/12 02:35:46;;;;;;;59.10;33.85;;;;;;;;;;6116506;23;20017;-72
2023/12/12 02:38:13;;;;;;;65.85;34.85;;;;;;;;;;6093088;23;20445;-71
2023/12/12 02:40:39;;;;;;;65.47;32.15;;;;;;;;;;6092157;23;20006;-72
2023/12/12 02:43:05;;;;;;;63.20;31.27;;;;;;;;;;6118251;23;20401;-72
2023/12/12 02:45:31;;;;;;;55.65;31.77;;;;;;;;;;6118182;23;20025;-71
2023/12/12 02:47:56;;;;;;;57.20;29.17;;;;;;;;;;6118578;23;20065;-72
2023/12/12 02:50:22;;;;;;;56.40;30.23;;;;;;;;;;6118202;23;20018;-72
2023/12/12 02:52:48;;;;;;;62.97;33.90;;;;;;;;;;6118032;23;20348;-72
2023/12/12 02:55:15;;;;;;;64.30;34.58;;;;;;;;;;6117631;23;20012;-72
2023/12/12 02:57:40;;;;;;;71.55;36.28;;;;;;;;;;6120365;23;20014;-72
2023/12/12 03:00:07;;;;;;;60.75;34.90;;;;;;;;;;6122358;23;20072;-73
2023/12/12 03:02:35;;;;;;;63.75;33.88;;;;;;;;;;6122159;23;20026;-74
2023/12/12 03:05:01;;;;;;;66.18;36.17;;;;;;;;;;6127161;23;20008;-72
2023/12/12 03:07:27;;;;;;;68.78;34.03;;;;;;;;;;6127526;23;20349;-71
2023/12/12 03:09:53;;;;;;;71.45;34.03;;;;;;;;;;6126638;23;20001;-72
2023/12/12 03:12:19;;;;;;;70.18;34.85;;;;;;;;;;6125389;23;20010;-72
2023/12/12 03:14:44;;;;;;;70.80;37.45;;;;;;;;;;6124834;23;20333;-72
2023/12/12 03:17:10;;;;;;;60.45;33.42;;;;;;;;;;6122863;23;20021;-72
2023/12/12 03:19:36;;;;;;;59.00;32.03;;;;;;;;;;6123311;23;20001;-71
2023/12/12 03:22:01;;;;;;;57.47;32.08;;;;;;;;;;6099188;23;20014;-71
2023/12/12 03:24:27;;;;;;;61.50;31.15;;;;;;;;;;6123744;23;20508;-74
2023/12/12 03:26:53;;;;;;;60.60;32.08;;;;;;;;;;6126172;23;20500;-71
2023/12/12 03:29:18;;;;;;;60.85;32.05;;;;;;;;;;6124276;23;20017;-71
2023/12/12 03:31:45;;;;;;;54.95;27.52;;;;;;;;;;6125506;23;20005;-72
2023/12/12 03:34:10;;;;;;;52.10;28.05;;;;;;;;;;6125371;23;20457;-71
2023/12/12 03:36:41;;;;;;;34.78;18.25;;;;;;;;;;6124242;23;20393;-72
2023/12/12 03:39:07;;;;;;;22.35;11.75;;;;;;;;;;6125573;23;20013;-72
2023/12/12 03:41:33;;;;;;;20.48;11.15;;;;;;;;;;6125006;23;20074;-71
2023/12/12 03:43:59;;;;;;;19.67;11.48;;;;;;;;;;6125267;23;20076;-71
2023/12/12 03:46:24;;;;;;;28.88;12.15;;;;;;;;;;6098892;23;20342;-72
2023/12/12 03:48:50;;;;;;;18.65;10.77;;;;;;;;;;6125119;23;20485;-71
2023/12/12 03:51:16;;;;;;;17.27;9.90;;;;;;;;;;6125299;23;20006;-71
2023/12/12 03:53:41;;;;;;;18.58;10.73;;;;;;;;;;6123430;23;20097;-71
2023/12/12 03:56:07;;;;;;;17.92;9.73;;;;;;;;;;6124848;23;20006;-72
2023/12/12 03:58:34;;;;;;;20.55;10.10;;;;;;;;;;6123809;23;20016;-71
2023/12/12 04:00:59;;;;;;;23.30;11.07;;;;;;;;;;6121418;23;20018;-72
2023/12/12 04:03:26;;;;;;;30.30;14.20;;;;;;;;;;6124190;23;20017;-71
2023/12/12 04:05:51;;;;;;;46.13;20.13;;;;;;;;;;6074878;23;20349;-71
2023/12/12 04:08:17;;;;;;;35.90;18.95;;;;;;;;;;6124170;23;20010;-72
2023/12/12 04:10:43;;;;;;;36.22;18.58;;;;;;;;;;6124412;23;20006;-72
2023/12/12 04:13:09;;;;;;;42.67;20.08;;;;;;;;;;6124127;23;20155;-71
2023/12/12 04:15:35;;;;;;;38.83;21.27;;;;;;;;;;6124559;23;20038;-72
2023/12/12 04:18:01;;;;;;;33.13;18.33;;;;;;;;;;6124370;23;20014;-73
2023/12/12 04:20:26;;;;;;;35.88;20.92;;;;;;;;;;6124570;23;20001;-72
2023/12/12 04:22:52;;;;;;;37.45;23.10;;;;;;;;;;6124000;23;20010;-72
2023/12/12 04:25:19;;;;;;;40.15;21.75;;;;;;;;;;6123791;23;20009;-71
2023/12/12 04:27:45;;;;;;;45.03;23.63;;;;;;;;;;6124692;23;20401;-71
2023/12/12 04:30:11;;;;;;;41.47;22.80;;;;;;;;;;6096614;23;20032;-72
2023/12/12 04:32:37;;;;;;;45.33;23.38;;;;;;;;;;6120795;23;20073;-71
2023/12/12 04:35:08;;;;;;;46.60;23.83;;;;;;;;;;6123439;23;20001;-72
2023/12/12 04:37:34;;;;;;;54.70;25.25;;;;;;;;;;6123839;23;20006;-72
2023/12/12 04:40:01;;;;;;;51.75;27.70;;;;;;;;;;6124016;23;20451;-72
2023/12/12 04:42:26;;;;;;;44.83;25.85;;;;;;;;;;6118935;23;20080;-72
2023/12/12 04:44:52;;;;;;;65.40;28.08;;;;;;;;;;6122986;23;20081;-72
2023/12/12 04:47:18;;;;;;;48.03;24.52;;;;;;;;;;6122455;23;20389;-72
2023/12/12 04:49:43;;;;;;;42.40;23.52;;;;;;;;;;6123739;23;20005;-72
2023/12/12 04:52:09;;;;;;;41.83;21.45;;;;;;;;;;6123525;23;20173;-72
2023/12/12 04:54:35;;;;;;;38.03;21.52;;;;;;;;;;6123174;23;20006;-72
2023/12/12 04:57:00;;;;;;;42.53;23.92;;;;;;;;;;6123705;23;20013;-73
2023/12/12 04:59:26;;;;;;;53.55;25.63;;;;;;;;;;6123984;23;20008;-72
2023/12/12 05:01:52;;;;;;;45.25;24.00;;;;;;;;;;6126440;23;20377;-72
2023/12/12 05:04:18;;;;;;;73.53;26.30;;;;;;;;;;6122979;23;20102;-73
2023/12/12 05:06:43;;;;;;;55.90;25.17;;;;;;;;;;6123353;23;20414;-71
2023/12/12 05:09:09;;;;;;;60.00;25.75;;;;;;;;;;6122400;23;20006;-70
2023/12/12 05:11:36;;;;;;;52.13;23.10;;;;;;;;;;6123559;23;20375;-71
2023/12/12 05:14:04;;;;;;;56.03;26.73;;;;;;;;;;6121172;23;20352;-70
2023/12/12 05:16:30;;;;;;;45.25;25.08;;;;;;;;;;6122703;23;20316;-70
2023/12/12 05:18:56;;;;;;;48.05;24.75;;;;;;;;;;6125210;23;19998;-71
2023/12/12 05:21:22;;;;;;;45.17;22.55;;;;;;;;;;6125554;23;20037;-70
2023/12/12 05:23:48;;;;;;;53.45;24.35;;;;;;;;;;6125054;23;20028;-71
2023/12/12 05:26:15;;;;;;;48.85;22.88;;;;;;;;;;6125007;23;20069;-71
2023/12/12 05:28:41;;;;;;;42.67;22.35;;;;;;;;;;6125011;23;20058;-71
2023/12/12 05:31:07;;;;;;;46.67;23.08;;;;;;;;;;6125341;23;20009;-71
2023/12/12 05:33:33;;;;;;;57.03;23.95;;;;;;;;;;6124851;23;20197;-71
2023/12/12 05:35:59;;;;;;;60.53;26.15;;;;;;;;;;6099842;23;20361;-71
2023/12/12 05:38:25;;;;;;;37.80;22.30;;;;;;;;;;6125358;23;20033;-71
2023/12/12 05:40:50;;;;;;;40.45;22.13;;;;;;;;;;6126405;23;20013;-71
2023/12/12 05:43:16;;;;;;;38.67;21.17;;;;;;;;;;6125076;23;20013;-71
2023/12/12 05:45:42;;;;;;;43.13;21.15;;;;;;;;;;6099344;23;20018;-70
2023/12/12 05:48:08;;;;;;;47.85;25.77;;;;;;;;;;6125044;23;20017;-71
2023/12/12 05:50:34;;;;;;;48.70;23.77;;;;;;;;;;6122981;23;20040;-71
2023/12/12 05:53:00;;;;;;;46.28;23.65;;;;;;;;;;6124246;23;20069;-71
2023/12/12 05:55:27;;;;;;;34.58;17.90;;;;;;;;;;6099522;23;20018;-70
2023/12/12 05:57:53;;;;;;;32.80;18.58;;;;;;;;;;6099264;23;20440;-72
2023/12/12 06:00:19;;;;;;;32.50;17.77;;;;;;;;;;6124924;23;20109;-70
2023/12/12 06:02:44;;;;;;;29.25;17.63;;;;;;;;;;6124799;23;20388;-71
2023/12/12 06:05:10;;;;;;;29.92;17.25;;;;;;;;;;6125721;23;20029;-72
2023/12/12 06:07:37;;;;;;;34.30;16.55;;;;;;;;;;6125242;23;20009;-71
2023/12/12 06:10:08;;;;;;;33.08;18.50;;;;;;;;;;6123455;23;20013;-71
2023/12/12 06:12:35;;;;;;;33.63;18.20;;;;;;;;;;6123391;23;20034;-72
2023/12/12 06:15:01;;;;;;;37.13;18.15;;;;;;;;;;6124377;23;20006;-71
2023/12/12 06:17:27;;;;;;;30.27;16.70;;;;;;;;;;6124709;23;20026;-71
2023/12/12 06:19:52;;;;;;;29.92;14.77;;;;;;;;;;6099543;23;20086;-71
2023/12/12 06:22:18;;;;;;;26.30;16.42;;;;;;;;;;6124362;23;20377;-70
2023/12/12 06:24:45;;;;;;;25.92;15.00;;;;;;;;;;6139086;23;20455;-72
2023/12/12 06:27:12;;;;;;;33.38;16.17;;;;;;;;;;6127608;23;20018;-72
2023/12/12 06:29:38;;;;;;;50.38;18.05;;;;;;;;;;6120856;23;20028;-71
2023/12/12 06:32:04;;;;;;;52.13;22.42;;;;;;;;;;6120354;23;20009;-70
2023/12/12 06:34:31;;;;;;;56.75;20.13;;;;;;;;;;6124070;23;20005;-70
2023/12/12 06:36:57;;;;;;;36.72;18.30;;;;;;;;;;6148161;23;20373;-70
2023/12/12 06:39:22;;;;;;;50.80;18.75;;;;;;;;;;6122648;23;20081;-70
2023/12/12 06:41:48;;;;;;;40.90;19.73;;;;;;;;;;6125172;23;20014;-70
2023/12/12 06:44:13;;;;;;;37.97;18.98;;;;;;;;;;6125642;23;20088;-71
2023/12/12 06:46:39;;;;;;;36.33;19.25;;;;;;;;;;6125485;23;20084;-70
2023/12/12 06:49:09;;;;;;;43.33;19.35;;;;;;;;;;6125301;23;20385;-70
2023/12/12 06:51:35;;;;;;;31.80;18.05;;;;;;;;;;6124494;23;20006;-72
2023/12/12 06:54:01;;;;;;;32.33;17.75;;;;;;;;;;6124641;23;20033;-70
2023/12/12 06:56:27;;;;;;;43.60;20.70;;;;;;;;;;6124310;23;20013;-71
2023/12/12 06:58:53;;;;;;;51.00;21.98;;;;;;;;;;6124592;23;20073;-69
2023/12/12 07:01:18;;;;;;;44.38;20.90;;;;;;;;;;6123294;23;20025;-71
2023/12/12 07:03:44;;;;;;;34.83;18.38;;;;;;;;;;6123685;23;20016;-71
2023/12/12 07:06:10;;;;;;;39.03;17.92;;;;;;;;;;6124001;23;20009;-70
2023/12/12 07:08:36;;;;;;;40.35;18.98;;;;;;;;;;6124077;23;20049;-70
2023/12/12 07:11:02;;;;;;;36.10;18.35;;;;;;;;;;6124097;23;20009;-70
2023/12/12 07:13:28;;;;;;;31.25;18.60;;;;;;;;;;6124180;23;20002;-70
2023/12/12 07:15:54;;;;;;;35.22;18.05;;;;;;;;;;6123046;23;20024;-70
2023/12/12 07:18:19;;;;;;;36.75;20.02;;;;;;;;;;6124568;23;20005;-70
2023/12/12 07:20:45;;;;;;;38.92;19.05;;;;;;;;;;6124516;23;20042;-70
2023/12/12 07:23:11;;;;;;;31.63;18.70;;;;;;;;;;6123967;23;20009;-71
2023/12/12 07:25:38;;;;;;;33.15;18.85;;;;;;;;;;6124968;23;20397;-71
2023/12/12 07:28:03;;;;;;;32.20;18.50;;;;;;;;;;6125286;23;20009;-70
2023/12/12 07:30:29;;;;;;;34.35;18.70;;;;;;;;;;6125135;23;20101;-71
2023/12/12 07:32:55;;;;;;;32.97;16.73;;;;;;;;;;6124186;23;19998;-71
2023/12/12 07:35:21;;;;;;;37.65;19.25;;;;;;;;;;6124132;23;20010;-71
2023/12/12 07:37:47;;;;;;;34.28;18.50;;;;;;;;;;6124202;23;20016;-72
2023/12/12 07:40:13;;;;;;;36.25;18.45;;;;;;;;;;6124535;23;20013;-72
2023/12/12 07:42:39;;;;;;;29.25;17.08;;;;;;;;;;6124343;23;20471;-72
2023/12/12 07:45:06;;;;;;;36.70;22.10;;;;;;;;;;6124781;23;20040;-71
2023/12/12 07:47:33;;;;;;;44.88;25.77;;;;;;;;;;6124826;23;20014;-70
2023/12/12 07:49:59;;;;;;;46.03;25.67;;;;;;;;;;6124323;23;20010;-72
2023/12/12 07:52:25;;;;;;;51.25;25.30;;;;;;;;;;6124422;23;20001;-71
2023/12/12 07:54:53;;;;;;;42.05;23.52;;;;;;;;;;6124093;23;20014;-71
2023/12/12 07:57:18;;;;;;;51.13;22.95;;;;;;;;;;6123879;23;20012;-70
2023/12/12 07:59:44;;;;;;;42.92;23.75;;;;;;;;;;6098072;23;20049;-70
2023/12/12 08:02:10;;;;;;;36.88;21.00;;;;;;;;;;6123091;23;20005;-70
2023/12/12 08:04:37;;;;;;;37.35;21.75;;;;;;;;;;6123197;23;20030;-70
2023/12/12 08:07:03;;;;;;;35.38;19.83;;;;;;;;;;6123578;23;20009;-71
2023/12/12 08:09:30;;;;;;;37.70;20.65;;;;;;;;;;6097863;23;20014;-71
2023/12/12 08:11:57;;;;;;;35.85;18.52;;;;;;;;;;6124114;23;20025;-71
2023/12/12 08:14:23;;;;;;;35.53;19.05;;;;;;;;;;6097615;23;20149;-71
2023/12/12 08:16:48;;;;;;;31.70;17.67;;;;;;;;;;6124213;23;20053;-70
2023/12/12 08:19:15;;;;;;;31.90;17.25;;;;;;;;;;6123568;23;20014;-70
2023/12/12 08:21:41;;;;;;;34.15;19.45;;;;;;;;;;6123571;23;20014;-70
2023/12/12 08:24:07;;;;;;;31.42;17.95;;;;;;;;;;6096968;23;20062;-72
2023/12/12 08:26:48;;;;;;;34.28;19.48;;;;;;;;;;6123215;23;20393;-70
2023/12/12 08:29:14;;;;;;;35.95;19.90;;;;;;;;;;6123619;23;20009;-71
2023/12/12 08:31:41;;;;;;;37.95;18.98;;;;;;;;;;6123690;23;20321;-71
2023/12/12 08:34:07;;;;;;;35.97;18.17;;;;;;;;;;6123273;23;20033;-72
2023/12/12 08:36:34;;;;;;;30.20;16.13;;;;;;;;;;6123626;23;20329;-71
2023/12/12 08:39:00;;;;;;;24.00;15.20;;;;;;;;;;6122489;23;20084;-72
2023/12/12 08:41:33;;;;;;;25.60;15.18;;;;;;;;;;6123409;23;20009;-71
2023/12/12 08:44:00;;;;;;;25.45;14.35;;;;;;;;;;6122412;23;20389;-72
2023/12/12 08:46:27;;;;;;;31.95;15.02;;;;;;;;;;6121504;23;20333;-70
2023/12/12 08:48:54;;;;;;;26.45;16.00;;;;;;;;;;6121856;23;20030;-71
2023/12/12 08:51:19;;;;;;;26.10;14.40;;;;;;;;;;6124217;23;20072;-70
2023/12/12 08:53:45;;;;;;;23.98;14.43;;;;;;;;;;6124119;23;20405;-71
2023/12/12 08:56:14;;;;;;;27.38;14.38;;;;;;;;;;6126205;23;20065;-72
2023/12/12 08:58:40;;;;;;;25.92;14.45;;;;;;;;;;6124160;23;20021;-72
2023/12/12 09:01:06;;;;;;;35.47;15.43;;;;;;;;;;6124455;23;20081;-72
2023/12/12 09:03:32;;;;;;;29.45;14.82;;;;;;;;;;6125190;23;20381;-72
2023/12/12 09:05:58;;;;;;;22.08;14.20;;;;;;;;;;6124446;23;20002;-71
2023/12/12 09:08:24;;;;;;;28.80;14.52;;;;;;;;;;6124208;23;20010;-72
2023/12/12 09:10:50;;;;;;;24.92;14.85;;;;;;;;;;6126528;23;20006;-71
2023/12/12 09:13:15;;;;;;;28.00;15.75;;;;;;;;;;6125044;23;20421;-71
2023/12/12 09:15:41;;;;;;;23.92;15.20;;;;;;;;;;6124684;23;20049;-71
2023/12/12 09:18:07;;;;;;;27.80;15.40;;;;;;;;;;6100420;23;20018;-71
2023/12/12 09:20:32;;;;;;;29.85;14.73;;;;;;;;;;6132387;23;20060;-72
2023/12/12 09:22:58;;;;;;;28.73;15.60;;;;;;;;;;6126909;23;20021;-71
2023/12/12 09:25:25;;;;;;;30.77;15.07;;;;;;;;;;6125065;23;20069;-70
2023/12/12 09:27:51;;;;;;;25.85;14.63;;;;;;;;;;6124149;23;20014;-72
2023/12/12 09:30:17;;;;;;;26.02;12.63;;;;;;;;;;6124670;23;20068;-71
2023/12/12 09:32:44;;;;;;;20.52;12.60;;;;;;;;;;6124865;23;20006;-72
2023/12/12 09:35:10;;;;;;;27.27;12.55;;;;;;;;;;6098236;23;20017;-71
2023/12/12 09:37:36;;;;;;;21.10;11.55;;;;;;;;;;6123895;23;20037;-71
2023/12/12 09:40:04;;;;;;;21.85;11.00;;;;;;;;;;6125633;23;20444;-72
2023/12/12 09:42:34;;;;;;;18.95;10.80;;;;;;;;;;6125617;23;20346;-71
2023/12/12 09:45:03;;;;;;;23.33;10.68;;;;;;;;;;6125459;23;20012;-70
2023/12/12 09:47:34;;;;;;;24.20;11.48;;;;;;;;;;6125292;23;20037;-71
2023/12/12 09:50:00;;;;;;;19.48;11.52;;;;;;;;;;6125758;23;20013;-71
2023/12/12 09:52:29;;;;;;;22.90;11.07;;;;;;;;;;6125492;23;20029;-71
2023/12/12 09:54:58;;;;;;;20.67;11.18;;;;;;;;;;6125838;23;20021;-72
2023/12/12 09:57:26;;;;;;;19.60;11.15;;;;;;;;;;6125121;23;20012;-72
2023/12/12 09:59:52;;;;;;;16.67;11.00;;;;;;;;;;6100035;23;20077;-71
2023/12/12 10:02:22;;;;;;;19.02;11.45;;;;;;;;;;6125626;23;20433;-72
2023/12/12 10:04:53;;;;;;;21.75;13.05;;;;;;;;;;6124646;23;20017;-71
2023/12/12 10:07:20;;;;;;;20.80;11.52;;;;;;;;;;6125177;23;20010;-71
2023/12/12 10:09:48;;;;;;;23.88;10.57;;;;;;;;;;6124904;23;20010;-70
2023/12/12 10:12:14;;;;;;;17.88;10.27;;;;;;;;;;6124581;23;20396;-72
2023/12/12 10:14:41;;;;;;;18.23;9.77;;;;;;;;;;6125259;23;20006;-71
2023/12/12 10:17:10;;;;;;;17.95;10.65;;;;;;;;;;6125715;23;20036;-71
2023/12/12 10:19:37;;;;;;;28.48;11.98;;;;;;;;;;6125767;23;20002;-70
2023/12/12 10:22:08;;;;;;;21.38;11.05;;;;;;;;;;6124704;23;20024;-69
2023/12/12 10:24:35;;;;;;;18.52;10.90;;;;;;;;;;6113573;23;20344;-71
2023/12/12 10:27:04;;;;;;;20.35;10.88;;;;;;;;;;6154203;23;20005;-72
2023/12/12 10:29:33;;;;;;;17.73;10.90;;;;;;;;;;6156785;23;20013;-71
2023/12/12 10:31:59;;;;;;;26.08;13.63;;;;;;;;;;6132572;23;20338;-73
2023/12/12 10:34:30;;;;;;;28.55;11.65;;;;;;;;;;6157013;23;20023;-72
2023/12/12 10:37:00;;;;;;;18.67;10.27;;;;;;;;;;6154340;23;20057;-71
2023/12/12 10:39:31;;;;;;;15.07;9.32;;;;;;;;;;6156604;23;20013;-72
2023/12/12 10:42:00;;;;;;;17.42;10.18;;;;;;;;;;6154564;23;20013;-71
2023/12/12 10:44:33;;;;;;;13.40;8.90;;;;;;;;;;6154596;23;20001;-73
2023/12/12 10:47:02;;;;;;;18.13;10.70;;;;;;;;;;6155480;23;20348;-72
2023/12/12 10:49:32;;;;;;;21.23;11.15;;;;;;;;;;6154566;23;20001;-71
2023/12/12 10:52:03;;;;;;;18.15;10.90;;;;;;;;;;6154494;23;20017;-71
2023/12/12 10:54:39;;;;;;;19.00;10.70;;;;;;;;;;6153895;23;20092;-72
2023/12/12 10:57:06;;;;;;;16.80;9.95;;;;;;;;;;6153841;23;20035;-72
2023/12/12 10:59:34;;;;;;;15.60;9.52;;;;;;;;;;6154976;23;20339;-71
2023/12/12 11:02:01;;;;;;;17.17;9.63;;;;;;;;;;6154556;23;20017;-71
2023/12/12 11:04:27;;;;;;;22.35;11.82;;;;;;;;;;6155124;23;20005;-73
2023/12/12 11:06:53;;;;;;;21.25;11.05;;;;;;;;;;6154914;23;20020;-72
2023/12/12 11:09:19;;;;;;;30.17;12.25;;;;;;;;;;6153003;23;20005;-72
2023/12/12 11:11:51;;;;;;;27.63;12.43;;;;;;;;;;6128144;23;20018;-72
2023/12/12 11:14:21;;;;;;;19.02;10.27;;;;;;;;;;6153713;23;20092;-72
2023/12/12 11:16:48;;;;;;;22.48;10.60;;;;;;;;;;6154768;23;20048;-72
2023/12/12 11:19:18;;;;;;;21.73;12.07;;;;;;;;;;6128169;23;20010;-71
2023/12/12 11:21:49;;;;;;;20.55;10.75;;;;;;;;;;6153922;23;20016;-70
2023/12/12 11:24:38;;;;;;;18.10;11.35;;;;;;;;;;6153299;23;20089;-71
2023/12/12 11:27:04;;;;;;;19.33;10.57;;;;;;;;;;6153421;23;20084;-72
2023/12/12 11:29:30;;;;;;;16.90;9.98;;;;;;;;;;6154087;23;20029;-71
2023/12/12 11:32:00;;;;;;;18.90;11.27;;;;;;;;;;6154302;23;20020;-70
2023/12/12 11:34:35;;;;;;;18.38;9.93;;;;;;;;;;6154371;23;20036;-71
2023/12/12 11:37:01;;;;;;;17.55;10.68;;;;;;;;;;6153982;23;20013;-72
2023/12/12 11:39:31;;;;;;;19.88;10.88;;;;;;;;;;6153863;23;20008;-73
2023/12/12 11:41:58;;;;;;;19.17;11.40;;;;;;;;;;6152060;23;20013;-72
2023/12/12 11:44:24;;;;;;;22.48;11.55;;;;;;;;;;6153002;23;20080;-73
2023/12/12 11:46:51;;;;;;;23.80;12.73;;;;;;;;;;6153913;23;20025;-71
2023/12/12 11:49:21;;;;;;;21.45;12.40;;;;;;;;;;6127594;23;20036;-71
2023/12/12 11:51:50;;;;;;;21.67;11.98;;;;;;;;;;6125477;23;20014;-71
2023/12/12 11:54:25;;;;;;;19.48;11.77;;;;;;;;;;6152952;23;20001;-73
2023/12/12 11:56:57;;;;;;;26.40;11.88;;;;;;;;;;6152966;23;20010;-72
2023/12/12 11:59:24;;;;;;;19.15;11.32;;;;;;;;;;6126910;23;20009;-72
2023/12/12 12:01:51;;;;;;;22.63;11.75;;;;;;;;;;6126050;23;20096;-71
2023/12/12 12:04:17;;;;;;;21.20;11.25;;;;;;;;;;6152286;23;20037;-72
2023/12/12 12:06:43;;;;;;;22.60;10.35;;;;;;;;;;6153601;23;20016;-72
2023/12/12 12:09:09;;;;;;;28.45;11.43;;;;;;;;;;6153192;23;20084;-71
2023/12/12 12:11:39;;;;;;;19.20;11.07;;;;;;;;;;6151194;23;20005;-71
2023/12/12 12:14:04;;;;;;;25.83;11.90;;;;;;;;;;6152926;23;20045;-71
2023/12/12 12:16:31;;;;;;;18.85;11.55;;;;;;;;;;6155558;23;20069;-74
2023/12/12 12:18:56;;;;;;;21.85;11.18;;;;;;;;;;6151479;23;20018;-71
2023/12/12 12:21:26;;;;;;;22.30;11.60;;;;;;;;;;6126209;23;20044;-72
2023/12/12 12:24:02;;;;;;;22.45;11.70;;;;;;;;;;6152334;23;20021;-71
2023/12/12 12:26:34;;;;;;;17.50;11.00;;;;;;;;;;6151893;23;20005;-72
2023/12/12 12:29:12;;;;;;;20.45;11.00;;;;;;;;;;6153644;23;20017;-71
2023/12/12 12:31:41;;;;;;;20.27;11.70;;;;;;;;;;6153798;23;20006;-72
2023/12/12 12:34:20;;;;;;;21.38;11.77;;;;;;;;;;6152504;23;20348;-72
2023/12/12 12:36:50;;;;;;;22.50;11.98;;;;;;;;;;6153805;23;20010;-71
2023/12/12 12:39:16;;;;;;;27.08;9.95;;;;;;;;;;6151919;23;20021;-71
2023/12/12 12:41:44;;;;;;;13.32;8.50;;;;;;;;;;6153051;23;20009;-71
2023/12/12 12:44:11;;;;;;;16.05;8.43;;;;;;;;;;6153506;23;20515;-71
2023/12/12 12:46:37;;;;;;;12.88;8.25;;;;;;;;;;6153561;23;20005;-70
2023/12/12 12:49:03;;;;;;;14.00;8.70;;;;;;;;;;6153403;23;20448;-71
2023/12/12 12:51:30;;;;;;;19.48;8.63;;;;;;;;;;6153391;23;20428;-71
2023/12/12 12:53:55;;;;;;;13.60;8.18;;;;;;;;;;6152857;23;20444;-71
2023/12/12 12:56:22;;;;;;;16.00;9.10;;;;;;;;;;6153705;23;20081;-72
2023/12/12 12:58:47;;;;;;;15.85;9.68;;;;;;;;;;6128113;23;20490;-73
2023/12/12 13:01:13;;;;;;;14.10;9.18;;;;;;;;;;6153750;23;20006;-69
2023/12/12 13:03:39;;;;;;;27.95;10.88;;;;;;;;;;6153346;23;20098;-71
2023/12/12 13:06:05;;;;;;;16.98;8.98;;;;;;;;;;6153427;23;20009;-72
2023/12/12 13:08:34;;;;;;;19.90;10.48;;;;;;;;;;6152892;23;20014;-72
2023/12/12 13:11:02;;;;;;;16.60;9.93;;;;;;;;;;6153757;23;20438;-73
2023/12/12 13:13:28;;;;;;;15.52;8.07;;;;;;;;;;6151972;23;20006;-72
2023/12/12 13:15:54;;;;;;;13.45;8.38;;;;;;;;;;6127463;23;20020;-73
2023/12/12 13:18:19;;;;;;;16.98;9.38;;;;;;;;;;6153952;23;20455;-71
2023/12/12 13:20:46;;;;;;;16.10;9.70;;;;;;;;;;6153953;23;20012;-71
2023/12/12 13:23:11;;;;;;;20.77;10.38;;;;;;;;;;6153487;23;20013;-72
2023/12/12 13:25:37;;;;;;;29.10;11.18;;;;;;;;;;6153581;23;20390;-74
2023/12/12 13:28:03;;;;;;;21.85;9.93;;;;;;;;;;6153233;23;20010;-72
2023/12/12 13:30:29;;;;;;;19.55;10.00;;;;;;;;;;6153098;23;20124;-71
2023/12/12 13:32:55;;;;;;;24.23;10.65;;;;;;;;;;6127296;23;20049;-70
2023/12/12 13:35:21;;;;;;;20.10;10.50;;;;;;;;;;6126909;23;20081;-70
2023/12/12 13:37:47;;;;;;;19.13;9.73;;;;;;;;;;6152045;23;20351;-70
2023/12/12 13:40:13;;;;;;;15.93;9.60;;;;;;;;;;6153455;23;20011;-70
2023/12/12 13:42:39;;;;;;;13.60;9.00;;;;;;;;;;6155235;23;20010;-71
2023/12/12 13:45:06;;;;;;;21.95;10.43;;;;;;;;;;6155109;23;20001;-71
2023/12/12 13:47:32;;;;;;;18.83;9.30;;;;;;;;;;6155186;23;20137;-71
2023/12/12 13:50:01;;;;;;;15.18;9.45;;;;;;;;;;6155973;23;20328;-71
2023/12/12 13:52:30;;;;;;;14.70;9.48;;;;;;;;;;6154716;23;20032;-71
2023/12/12 13:54:55;;;;;;;15.75;8.98;;;;;;;;;;6155547;23;20001;-71
2023/12/12 13:57:22;;;;;;;15.35;9.35;;;;;;;;;;6155647;23;20405;-71
2023/12/12 13:59:49;;;;;;;21.67;10.60;;;;;;;;;;6156485;23;20011;-70
2023/12/12 14:02:15;;;;;;;21.48;12.02;;;;;;;;;;6155582;23;20068;-72
2023/12/12 14:04:40;;;;;;;33.55;11.98;;;;;;;;;;6155310;23;20376;-70
2023/12/12 14:07:06;;;;;;;25.17;12.48;;;;;;;;;;6152228;23;20014;-71
2023/12/12 14:09:32;;;;;;;26.42;11.05;;;;;;;;;;6129039;23;20005;-71
2023/12/12 14:12:02;;;;;;;24.05;9.30;;;;;;;;;;6152075;23;20032;-72
2023/12/12 14:14:29;;;;;;;18.83;8.98;;;;;;;;;;6153419;23;20429;-71
2023/12/12 14:16:55;;;;;;;14.05;7.05;;;;;;;;;;6154450;23;20397;-74